Time;durP1;ratioP1;P1;durP2;ratioP2;P2;SDS_P1;SDS_P2;PMS_P1;PMS_P2;Temp;Humidity;BMP_temperature;BMP_pressure;BME280_temperature;BME280_humidity;BME280_pressure;Samples;Min_cycle;Max_cycle;Signal;HPM_P1;HPM_P2
2024/01/29 00:00:36;;;;;;;23.58;14.07;;;3.20;69.80;;;;;;2302954;55;21421;-66
2024/01/29 00:03:02;;;;;;;24.20;13.38;;;3.20;69.80;;;;;;2303646;55;21033;-66
2024/01/29 00:05:28;;;;;;;22.75;13.98;;;3.20;69.80;;;;;;2304800;55;21474;-66
2024/01/29 00:07:57;;;;;;;20.08;12.37;;;3.20;69.80;;;;;;2542039;54;20965;-65
2024/01/29 00:10:25;;;;;;;22.30;13.00;;;3.20;69.80;;;;;;2305088;55;20953;-66
2024/01/29 00:12:51;;;;;;;21.30;12.95;;;3.20;69.80;;;;;;2303872;55;20965;-65
2024/01/29 00:15:18;;;;;;;18.60;11.50;;;3.20;69.80;;;;;;2541855;54;20944;-66
2024/01/29 00:17:44;;;;;;;17.98;10.70;;;3.20;69.90;;;;;;2302334;55;21078;-65
2024/01/29 00:20:10;;;;;;;17.67;11.15;;;3.20;69.90;;;;;;2304035;55;20973;-65
2024/01/29 00:22:37;;;;;;;19.65;12.30;;;3.20;69.90;;;;;;2304023;55;20985;-66
2024/01/29 00:25:03;;;;;;;16.23;10.35;;;3.20;70.00;;;;;;2542164;54;21502;-67
2024/01/29 00:27:30;;;;;;;20.08;10.82;;;3.20;70.00;;;;;;2304635;55;21013;-66
2024/01/29 00:29:56;;;;;;;19.00;11.15;;;3.10;69.80;;;;;;2303492;55;20957;-65
2024/01/29 00:32:23;;;;;;;16.33;9.80;;;3.20;70.00;;;;;;2305661;55;20964;-65
2024/01/29 00:34:51;;;;;;;17.45;10.95;;;3.20;70.00;;;;;;2302913;55;21464;-65
2024/01/29 00:37:18;;;;;;;16.35;10.05;;;3.10;69.90;;;;;;2304442;55;20992;-65
2024/01/29 00:39:44;;;;;;;20.05;11.70;;;3.10;70.00;;;;;;2303992;55;20985;-66
2024/01/29 00:42:10;;;;;;;18.00;10.40;;;3.10;70.00;;;;;;2540523;53;21341;-67
2024/01/29 00:44:37;;;;;;;18.45;10.68;;;3.10;70.00;;;;;;2537641;54;21517;-66
2024/01/29 00:47:03;;;;;;;21.75;11.38;;;3.10;70.10;;;;;;2305852;55;21003;-66
2024/01/29 00:49:32;;;;;;;25.23;12.48;;;2.90;70.00;;;;;;2539639;54;20957;-65
2024/01/29 00:51:59;;;;;;;26.23;13.98;;;3.10;70.20;;;;;;2541703;53;20953;-65
2024/01/29 00:54:25;;;;;;;33.13;14.48;;;3.10;70.20;;;;;;2304524;55;21033;-65
2024/01/29 00:56:52;;;;;;;39.67;17.25;;;3.20;70.30;;;;;;2303728;55;21289;-65
2024/01/29 00:59:18;;;;;;;46.00;20.90;;;3.10;70.10;;;;;;2304024;55;21037;-65
2024/01/29 01:01:45;;;;;;;47.10;20.30;;;3.10;70.20;;;;;;2542927;54;20994;-66
2024/01/29 01:04:11;;;;;;;44.95;22.13;;;3.10;70.20;;;;;;2542563;53;21874;-66
2024/01/29 01:06:37;;;;;;;38.30;18.62;;;3.10;70.20;;;;;;2301570;55;20969;-65
2024/01/29 01:09:04;;;;;;;38.80;18.83;;;3.10;70.20;;;;;;2303547;55;21009;-65
2024/01/29 01:11:30;;;;;;;38.80;17.98;;;3.20;70.30;;;;;;2304680;55;20964;-65
2024/01/29 01:13:56;;;;;;;33.60;17.15;;;3.10;70.20;;;;;;2303598;55;21831;-66
2024/01/29 01:16:27;;;;;;;34.92;16.48;;;3.10;70.20;;;;;;2304809;55;21064;-65
2024/01/29 01:18:54;;;;;;;28.10;15.23;;;3.10;70.20;;;;;;2541832;54;21455;-66
2024/01/29 01:21:21;;;;;;;29.55;14.90;;;3.10;70.20;;;;;;2303715;55;21757;-65
2024/01/29 01:23:48;;;;;;;31.85;14.40;;;3.10;70.20;;;;;;2302623;55;21447;-66
2024/01/29 01:26:14;;;;;;;29.70;14.43;;;3.10;70.10;;;;;;2306670;55;22254;-65
2024/01/29 01:28:41;;;;;;;25.10;12.93;;;3.10;70.10;;;;;;2303843;55;21021;-66
2024/01/29 01:31:07;;;;;;;23.67;12.63;;;3.10;70.10;;;;;;2302517;55;21065;-66
2024/01/29 01:33:37;;;;;;;27.25;13.10;;;3.10;70.10;;;;;;2542648;54;21873;-66
2024/01/29 01:36:04;;;;;;;28.23;13.35;;;3.10;70.10;;;;;;2305126;54;20965;-65
2024/01/29 01:38:31;;;;;;;25.23;12.35;;;3.10;70.00;;;;;;2304089;55;20934;-66
2024/01/29 01:40:58;;;;;;;19.73;11.15;;;2.90;69.90;;;;;;2540455;54;21061;-65
2024/01/29 01:43:25;;;;;;;22.33;11.23;;;3.10;70.00;;;;;;2305048;55;21352;-66
2024/01/29 01:46:06;;;;;;;20.35;10.57;;;3.10;70.00;;;;;;2303376;55;20986;-66
2024/01/29 01:48:33;;;;;;;19.75;11.30;;;3.10;70.00;;;;;;2304175;55;21465;-66
2024/01/29 01:51:06;;;;;;;19.52;9.93;;;3.10;70.00;;;;;;2541749;54;21054;-66
2024/01/29 01:53:33;;;;;;;19.92;9.98;;;3.10;70.00;;;;;;2304335;55;20997;-66
2024/01/29 01:55:59;;;;;;;17.42;9.65;;;3.10;70.00;;;;;;2303992;55;20966;-66
2024/01/29 01:58:27;;;;;;;16.05;8.25;;;3.10;70.00;;;;;;2303679;55;21033;-66
2024/01/29 02:00:56;;;;;;;16.73;8.48;;;3.10;70.00;;;;;;2541600;54;21872;-66
2024/01/29 02:03:22;;;;;;;18.55;9.70;;;3.10;70.00;;;;;;2304281;55;21044;-66
2024/01/29 02:05:49;;;;;;;16.15;8.98;;;3.10;70.00;;;;;;2541891;54;21413;-66
2024/01/29 02:08:15;;;;;;;16.85;9.13;;;3.10;70.00;;;;;;2304135;55;21327;-66
2024/01/29 02:10:42;;;;;;;14.80;8.57;;;3.00;70.00;;;;;;2304524;55;20997;-65
2024/01/29 02:13:12;;;;;;;13.32;7.78;;;3.10;70.10;;;;;;2304595;55;20986;-66
2024/01/29 02:15:38;;;;;;;12.35;7.20;;;3.00;70.00;;;;;;2304094;55;21037;-66
2024/01/29 02:18:04;;;;;;;12.65;7.20;;;3.00;70.00;;;;;;2303321;55;21081;-65
2024/01/29 02:20:40;;;;;;;11.65;6.95;;;3.00;70.00;;;;;;2305124;55;20985;-66
2024/01/29 02:23:06;;;;;;;8.65;5.62;;;3.00;70.00;;;;;;2304390;55;21041;-65
2024/01/29 02:25:35;;;;;;;10.02;5.57;;;3.10;70.10;;;;;;2304590;55;20967;-66
2024/01/29 02:28:01;;;;;;;11.52;5.70;;;3.00;70.10;;;;;;2539596;54;21022;-66
2024/01/29 02:30:28;;;;;;;8.07;4.45;;;3.00;70.10;;;;;;2304924;55;20981;-66
2024/01/29 02:32:54;;;;;;;8.50;4.07;;;3.00;70.10;;;;;;2303097;55;20985;-66
2024/01/29 02:35:22;;;;;;;7.57;4.82;;;3.00;70.10;;;;;;2303077;55;20956;-66
2024/01/29 02:37:48;;;;;;;8.77;4.85;;;3.00;70.20;;;;;;2303772;55;20948;-66
2024/01/29 02:40:15;;;;;;;6.97;3.62;;;3.00;70.10;;;;;;2304373;55;20964;-66
2024/01/29 02:42:41;;;;;;;7.87;3.85;;;3.00;70.20;;;;;;2304497;55;20969;-65
2024/01/29 02:45:10;;;;;;;6.60;3.40;;;3.00;70.20;;;;;;2535658;54;21006;-66
2024/01/29 02:47:37;;;;;;;7.18;3.28;;;3.00;70.30;;;;;;2303989;55;21021;-66
2024/01/29 02:50:07;;;;;;;6.62;3.83;;;3.00;70.30;;;;;;2304238;55;21009;-65
2024/01/29 02:52:34;;;;;;;7.07;4.10;;;3.00;70.30;;;;;;2303685;55;21069;-66
2024/01/29 02:55:00;;;;;;;6.57;3.20;;;3.10;70.40;;;;;;2541752;54;20976;-65
2024/01/29 02:57:27;;;;;;;6.68;3.53;;;3.00;70.30;;;;;;2304345;55;21001;-65
2024/01/29 02:59:54;;;;;;;7.47;3.72;;;3.10;70.40;;;;;;2304236;55;20958;-66
2024/01/29 03:02:21;;;;;;;8.68;4.10;;;3.10;70.40;;;;;;2542334;54;20965;-66
2024/01/29 03:04:49;;;;;;;7.47;4.18;;;3.10;70.40;;;;;;2305614;55;21074;-66
2024/01/29 03:07:15;;;;;;;7.55;3.37;;;3.10;71.20;;;;;;2300344;55;21743;-67
2024/01/29 03:09:41;;;;;;;7.22;3.80;;;3.10;70.50;;;;;;2304662;55;20926;-66
2024/01/29 03:12:08;;;;;;;8.85;4.07;;;3.10;70.50;;;;;;2541659;54;21414;-66
2024/01/29 03:14:38;;;;;;;6.45;3.60;;;3.10;70.40;;;;;;2304608;55;21025;-66
2024/01/29 03:17:08;;;;;;;5.37;2.95;;;3.10;70.40;;;;;;2304119;55;20921;-66
2024/01/29 03:19:35;;;;;;;7.25;3.60;;;3.10;71.00;;;;;;2542392;54;20960;-66
2024/01/29 03:22:01;;;;;;;6.43;3.28;;;3.10;70.30;;;;;;2303571;55;20980;-66
2024/01/29 03:24:27;;;;;;;6.57;3.75;;;3.10;70.30;;;;;;2307270;55;21300;-66
2024/01/29 03:26:56;;;;;;;5.90;3.17;;;3.10;70.30;;;;;;2299428;55;21016;-66
2024/01/29 03:29:22;;;;;;;6.25;3.10;;;3.10;70.30;;;;;;2306428;55;20959;-66
2024/01/29 03:31:50;;;;;;;6.18;3.35;;;3.10;70.30;;;;;;2280277;55;21250;-65
2024/01/29 03:34:17;;;;;;;6.65;3.20;;;3.10;70.30;;;;;;2303439;55;20957;-66
2024/01/29 03:36:44;;;;;;;5.93;3.00;;;3.10;70.30;;;;;;2542528;54;20941;-66
2024/01/29 03:39:11;;;;;;;6.68;3.55;;;3.10;70.30;;;;;;2304534;55;20909;-65
2024/01/29 03:41:38;;;;;;;6.65;2.80;;;3.10;70.30;;;;;;2304710;55;20981;-66
2024/01/29 03:44:05;;;;;;;10.48;4.90;;;3.10;70.40;;;;;;2541646;53;21277;-65
2024/01/29 03:46:36;;;;;;;11.63;5.37;;;3.10;70.40;;;;;;2303967;55;21438;-66
2024/01/29 03:49:03;;;;;;;8.80;4.18;;;3.10;70.50;;;;;;2541830;54;21851;-66
2024/01/29 03:51:29;;;;;;;8.60;3.90;;;3.10;70.50;;;;;;2304132;55;21053;-65
2024/01/29 03:53:58;;;;;;;8.35;4.22;;;3.10;70.60;;;;;;2542408;53;20926;-65
2024/01/29 03:56:27;;;;;;;6.57;3.50;;;3.20;70.80;;;;;;2543014;54;21025;-66
2024/01/29 03:58:56;;;;;;;6.25;3.65;;;3.10;70.70;;;;;;2304064;55;21736;-66
2024/01/29 04:01:28;;;;;;;6.35;3.22;;;3.10;70.70;;;;;;2304569;55;20945;-66
2024/01/29 04:03:54;;;;;;;8.25;3.90;;;3.20;70.80;;;;;;2304457;55;21049;-66
2024/01/29 04:06:20;;;;;;;6.22;2.75;;;3.20;70.90;;;;;;2542199;54;20981;-65
2024/01/29 04:08:47;;;;;;;5.93;2.92;;;3.20;70.90;;;;;;2304517;55;20971;-65
2024/01/29 04:11:13;;;;;;;7.18;3.37;;;3.20;71.00;;;;;;2540645;54;20929;-66
2024/01/29 04:13:41;;;;;;;7.05;3.62;;;3.20;71.00;;;;;;2304692;55;21017;-66
2024/01/29 04:16:12;;;;;;;5.50;3.10;;;3.20;71.00;;;;;;2541708;54;21495;-66
2024/01/29 04:18:39;;;;;;;7.70;3.83;;;3.20;71.10;;;;;;2304419;55;21040;-66
2024/01/29 04:21:06;;;;;;;8.18;3.30;;;3.30;71.00;;;;;;2303936;55;21577;-65
2024/01/29 04:23:35;;;;;;;5.97;3.20;;;3.30;71.00;;;;;;2304393;55;20945;-66
2024/01/29 04:26:02;;;;;;;5.15;2.80;;;3.30;71.00;;;;;;2302632;55;20985;-66
2024/01/29 04:28:31;;;;;;;8.35;3.55;;;3.30;71.00;;;;;;2304214;55;21737;-66
2024/01/29 04:30:57;;;;;;;5.28;2.55;;;3.30;71.00;;;;;;2304109;55;20957;-66
2024/01/29 04:33:24;;;;;;;5.53;2.50;;;3.30;70.90;;;;;;2304526;55;20941;-66
2024/01/29 04:35:51;;;;;;;5.95;3.12;;;3.30;70.80;;;;;;2306282;55;21479;-66
2024/01/29 04:38:17;;;;;;;6.65;2.97;;;3.30;70.80;;;;;;2537933;54;20941;-66
2024/01/29 04:40:43;;;;;;;5.05;2.90;;;3.30;70.80;;;;;;2304410;55;20952;-66
2024/01/29 04:43:10;;;;;;;5.30;2.40;;;3.30;70.80;;;;;;2541081;54;20981;-66
2024/01/29 04:45:36;;;;;;;5.72;2.70;;;3.30;70.80;;;;;;2542902;54;21017;-66
2024/01/29 04:48:06;;;;;;;5.22;2.60;;;3.30;70.70;;;;;;2303821;55;20945;-66
2024/01/29 04:50:32;;;;;;;5.87;3.08;;;3.30;70.60;;;;;;2304198;55;21072;-65
2024/01/29 04:53:01;;;;;;;4.75;2.95;;;3.30;70.70;;;;;;2541698;54;20977;-66
2024/01/29 04:55:27;;;;;;;6.00;2.95;;;3.30;70.60;;;;;;2537640;54;20970;-66
2024/01/29 04:57:54;;;;;;;5.35;2.45;;;3.40;70.70;;;;;;2532684;54;20945;-66
2024/01/29 05:00:23;;;;;;;5.25;2.83;;;3.40;70.70;;;;;;2297994;55;20989;-66
2024/01/29 05:02:50;;;;;;;4.53;2.10;;;3.40;70.70;;;;;;2291464;55;21049;-65
2024/01/29 05:05:16;;;;;;;6.05;2.80;;;3.40;70.70;;;;;;2303860;55;21467;-66
2024/01/29 05:07:42;;;;;;;5.00;2.60;;;3.40;70.70;;;;;;2305006;55;20972;-66
2024/01/29 05:10:09;;;;;;;5.47;2.42;;;3.40;70.70;;;;;;2536499;54;21445;-65
2024/01/29 05:12:37;;;;;;;3.65;2.00;;;3.40;70.70;;;;;;2304573;55;21025;-66
2024/01/29 05:15:03;;;;;;;5.55;2.70;;;3.40;70.70;;;;;;2542189;54;21411;-66
2024/01/29 05:17:30;;;;;;;6.87;2.70;;;3.40;70.70;;;;;;2304810;55;21815;-66
2024/01/29 05:19:57;;;;;;;6.87;2.42;;;3.40;70.70;;;;;;2541875;54;20990;-66
2024/01/29 05:22:23;;;;;;;6.47;2.72;;;3.40;70.70;;;;;;2304367;55;21443;-66
2024/01/29 05:24:49;;;;;;;5.32;2.75;;;3.40;70.70;;;;;;2542804;54;21459;-66
2024/01/29 05:27:16;;;;;;;6.80;2.60;;;3.40;70.70;;;;;;2304401;55;21025;-66
2024/01/29 05:29:43;;;;;;;6.03;3.10;;;3.40;70.70;;;;;;2542711;54;20965;-66
2024/01/29 05:32:10;;;;;;;7.12;3.25;;;3.40;70.80;;;;;;2541823;54;21752;-65
2024/01/29 05:34:36;;;;;;;6.70;3.03;;;3.40;70.80;;;;;;2542562;54;21406;-66
2024/01/29 05:37:03;;;;;;;5.43;2.60;;;3.40;70.90;;;;;;2303756;55;20938;-66
2024/01/29 05:39:30;;;;;;;7.85;2.95;;;3.40;70.90;;;;;;2304337;55;21790;-66
2024/01/29 05:41:57;;;;;;;5.10;2.35;;;3.40;70.90;;;;;;2542323;54;21002;-65
2024/01/29 05:44:23;;;;;;;5.30;2.55;;;3.50;71.00;;;;;;2304662;55;20973;-67
2024/01/29 05:46:50;;;;;;;4.78;2.10;;;3.50;71.00;;;;;;2304413;55;20977;-66
2024/01/29 05:49:18;;;;;;;4.93;2.50;;;3.50;71.00;;;;;;2304131;55;21462;-66
2024/01/29 05:51:44;;;;;;;4.80;2.15;;;3.50;70.90;;;;;;2305799;55;20973;-66
2024/01/29 05:54:11;;;;;;;8.20;3.50;;;3.50;70.90;;;;;;2536711;54;21831;-65
2024/01/29 05:56:42;;;;;;;5.45;2.62;;;3.50;70.90;;;;;;2303953;55;20981;-66
2024/01/29 05:59:08;;;;;;;5.43;3.17;;;3.50;70.90;;;;;;2304136;55;21032;-66
2024/01/29 06:01:35;;;;;;;5.45;2.65;;;3.50;70.90;;;;;;2537626;54;21006;-65
2024/01/29 06:04:02;;;;;;;6.97;3.00;;;3.50;70.80;;;;;;2541000;54;21312;-65
2024/01/29 06:06:31;;;;;;;8.45;3.22;;;3.50;70.80;;;;;;2542358;54;21759;-66
2024/01/29 06:08:59;;;;;;;8.77;4.50;;;3.50;70.70;;;;;;2304479;55;21808;-65
2024/01/29 06:11:27;;;;;;;7.87;4.25;;;3.50;70.70;;;;;;2541837;54;20937;-66
2024/01/29 06:13:54;;;;;;;7.80;3.80;;;3.50;70.70;;;;;;2282315;55;21041;-66
2024/01/29 06:16:22;;;;;;;6.43;3.05;;;3.50;70.60;;;;;;2304326;55;21539;-66
2024/01/29 06:18:49;;;;;;;9.13;4.50;;;3.50;70.50;;;;;;2304571;55;20933;-65
2024/01/29 06:21:16;;;;;;;7.50;4.05;;;3.50;70.50;;;;;;2303902;55;21018;-66
2024/01/29 06:23:43;;;;;;;8.02;4.50;;;3.50;70.50;;;;;;2304769;55;21012;-66
2024/01/29 06:26:09;;;;;;;9.60;3.80;;;3.50;70.50;;;;;;2303960;55;21885;-66
2024/01/29 06:28:36;;;;;;;7.32;3.70;;;3.50;70.60;;;;;;2307919;55;20949;-65
2024/01/29 06:31:03;;;;;;;6.87;3.97;;;3.50;70.70;;;;;;2515646;54;20942;-64
2024/01/29 06:33:30;;;;;;;8.13;4.62;;;3.50;70.70;;;;;;2298658;55;21022;-66
2024/01/29 06:35:59;;;;;;;11.38;4.75;;;3.50;70.70;;;;;;2536029;54;20935;-65
2024/01/29 06:38:26;;;;;;;11.27;5.97;;;3.50;70.70;;;;;;2303261;55;20965;-66
2024/01/29 06:40:54;;;;;;;7.78;4.75;;;3.50;70.70;;;;;;2304308;55;20937;-66
2024/01/29 06:43:20;;;;;;;7.07;4.15;;;3.50;70.60;;;;;;2302862;55;20957;-65
2024/01/29 06:45:47;;;;;;;8.43;4.62;;;3.50;70.60;;;;;;2303707;55;20997;-66
2024/01/29 06:48:13;;;;;;;7.57;4.18;;;3.50;70.60;;;;;;2536837;54;21319;-66
2024/01/29 06:50:42;;;;;;;8.13;4.30;;;3.40;70.40;;;;;;2304247;55;20965;-65
2024/01/29 06:53:08;;;;;;;9.20;4.80;;;3.50;70.50;;;;;;2304191;55;20957;-66
2024/01/29 06:55:35;;;;;;;7.57;4.10;;;3.40;70.30;;;;;;2304059;55;21317;-66
2024/01/29 06:58:01;;;;;;;8.55;4.75;;;3.40;70.40;;;;;;2535348;54;20982;-64
2024/01/29 07:00:28;;;;;;;8.35;4.80;;;3.40;70.30;;;;;;2307075;55;21736;-66
2024/01/29 07:03:00;;;;;;;8.35;4.80;;;3.40;70.30;;;;;;2536707;54;20927;-65
2024/01/29 07:05:27;;;;;;;8.32;4.32;;;3.40;70.30;;;;;;2542377;54;20969;-64
2024/01/29 07:07:54;;;;;;;7.00;4.12;;;3.40;70.40;;;;;;2305907;55;21439;-65
2024/01/29 07:10:20;;;;;;;7.15;3.30;;;3.40;70.40;;;;;;2542031;54;21001;-66
2024/01/29 07:12:47;;;;;;;7.53;4.03;;;3.40;70.40;;;;;;2304562;55;21001;-66
2024/01/29 07:15:15;;;;;;;8.07;3.65;;;3.40;70.40;;;;;;2541997;54;21025;-65
2024/01/29 07:17:42;;;;;;;7.82;4.37;;;3.40;70.40;;;;;;2304722;55;21024;-66
2024/01/29 07:20:11;;;;;;;8.43;4.53;;;3.40;70.30;;;;;;2303895;55;21408;-66
2024/01/29 07:22:38;;;;;;;7.97;4.15;;;3.30;70.30;;;;;;2304028;55;21281;-66
2024/01/29 07:25:05;;;;;;;8.80;4.65;;;3.40;70.40;;;;;;2304056;55;21994;-65
2024/01/29 07:27:31;;;;;;;10.25;5.12;;;3.30;70.30;;;;;;2305354;55;20950;-66
2024/01/29 07:29:58;;;;;;;7.97;4.60;;;3.30;70.40;;;;;;2540747;54;20938;-66
2024/01/29 07:32:31;;;;;;;9.32;4.80;;;3.30;70.40;;;;;;2303233;55;20867;-66
2024/01/29 07:35:00;;;;;;;8.65;5.28;;;3.40;70.60;;;;;;2304294;55;20917;-66
2024/01/29 07:37:27;;;;;;;10.93;5.12;;;3.40;70.60;;;;;;2542086;54;20918;-66
2024/01/29 07:39:57;;;;;;;9.00;5.22;;;3.40;70.70;;;;;;2542797;54;20985;-67
2024/01/29 07:42:24;;;;;;;10.15;5.40;;;3.40;70.80;;;;;;2303789;55;21025;-66
2024/01/29 07:44:51;;;;;;;11.82;5.70;;;3.40;70.90;;;;;;2298324;55;21004;-66
2024/01/29 07:47:17;;;;;;;7.97;4.62;;;3.40;71.00;;;;;;2518947;54;21015;-66
2024/01/29 07:49:45;;;;;;;8.77;4.57;;;3.40;71.00;;;;;;2536525;54;21796;-66
2024/01/29 07:52:11;;;;;;;7.62;4.57;;;3.40;71.10;;;;;;2303268;55;20961;-66
2024/01/29 07:54:38;;;;;;;8.52;5.03;;;3.40;71.20;;;;;;2304117;55;20989;-65
2024/01/29 07:57:05;;;;;;;8.00;4.50;;;3.20;71.10;;;;;;2304415;55;20953;-65
2024/01/29 07:59:31;;;;;;;9.68;4.72;;;3.50;71.40;;;;;;2542202;54;21037;-66
2024/01/29 08:01:58;;;;;;;7.87;4.65;;;3.50;71.40;;;;;;2542536;54;21013;-66
2024/01/29 08:04:25;;;;;;;8.18;4.87;;;3.50;71.50;;;;;;2303295;55;20973;-66
2024/01/29 08:06:54;;;;;;;9.00;5.40;;;3.60;71.70;;;;;;2540687;54;21036;-66
2024/01/29 08:09:26;;;;;;;8.98;4.68;;;3.60;71.70;;;;;;2540792;54;21009;-66
2024/01/29 08:11:52;;;;;;;10.82;5.90;;;3.60;71.70;;;;;;2542196;54;21016;-66
2024/01/29 08:14:21;;;;;;;8.27;5.32;;;3.60;71.70;;;;;;2541392;53;20969;-66
2024/01/29 08:16:48;;;;;;;9.88;5.90;;;3.70;71.90;;;;;;2542376;54;21502;-66
2024/01/29 08:19:16;;;;;;;10.60;6.10;;;3.70;71.90;;;;;;2306190;55;20973;-65
2024/01/29 08:21:45;;;;;;;9.57;6.00;;;3.70;71.90;;;;;;2540815;54;21462;-67
2024/01/29 08:24:11;;;;;;;9.20;5.35;;;3.80;72.00;;;;;;2541140;54;21008;-67
2024/01/29 08:26:38;;;;;;;9.15;5.30;;;3.80;72.10;;;;;;2307202;55;21005;-66
2024/01/29 08:29:06;;;;;;;9.40;5.72;;;3.90;72.30;;;;;;2303055;55;20923;-66
2024/01/29 08:31:33;;;;;;;9.23;6.03;;;3.90;72.30;;;;;;2541703;54;20968;-66
2024/01/29 08:33:59;;;;;;;9.73;5.95;;;3.90;72.40;;;;;;2541864;54;21013;-66
2024/01/29 08:36:26;;;;;;;10.73;6.57;;;4.00;72.50;;;;;;2305155;55;20985;-66
2024/01/29 08:38:52;;;;;;;12.68;7.22;;;4.00;72.60;;;;;;2295943;55;21037;-67
2024/01/29 08:41:19;;;;;;;10.18;6.15;;;4.10;72.70;;;;;;2528008;54;21064;-66
2024/01/29 08:43:45;;;;;;;8.73;5.80;;;4.10;72.80;;;;;;2304529;55;21562;-66
2024/01/29 08:46:12;;;;;;;7.95;5.32;;;4.20;72.90;;;;;;2300616;55;20953;-67
2024/01/29 08:48:38;;;;;;;10.70;7.10;;;4.20;73.00;;;;;;2277799;55;20980;-67
2024/01/29 08:51:05;;;;;;;11.12;6.95;;;4.30;73.10;;;;;;2277736;56;21062;-66
2024/01/29 08:53:32;;;;;;;10.73;6.87;;;4.30;73.20;;;;;;2277752;55;20987;-66
2024/01/29 08:55:59;;;;;;;12.00;8.15;;;4.40;73.30;;;;;;2277795;55;21184;-68
2024/01/29 08:58:25;;;;;;;9.18;6.03;;;4.40;73.40;;;;;;2277784;55;20964;-67
2024/01/29 09:00:54;;;;;;;8.27;5.00;;;4.50;73.60;;;;;;2278314;56;21012;-67
2024/01/29 09:03:20;;;;;;;6.70;3.90;;;4.60;73.80;;;;;;2277464;56;20979;-67
2024/01/29 09:05:48;;;;;;;6.97;3.78;;;4.70;74.10;;;;;;2278666;55;20987;-68
2024/01/29 09:08:15;;;;;;;6.70;3.80;;;4.70;74.20;;;;;;2484727;55;21063;-66
2024/01/29 09:10:43;;;;;;;11.05;5.78;;;4.80;74.40;;;;;;2505173;55;21275;-67
2024/01/29 09:13:11;;;;;;;13.43;6.37;;;4.90;74.50;;;;;;2257965;55;21013;-66
2024/01/29 09:15:38;;;;;;;13.88;6.55;;;5.00;74.60;;;;;;2274515;55;21081;-66
2024/01/29 09:18:04;;;;;;;10.02;5.75;;;5.00;74.60;;;;;;2282475;55;21326;-67
2024/01/29 09:20:31;;;;;;;10.48;5.45;;;5.10;74.60;;;;;;2287288;54;20963;-66
2024/01/29 09:22:57;;;;;;;12.93;6.93;;;5.20;74.70;;;;;;2521515;54;20946;-66
2024/01/29 09:25:25;;;;;;;13.13;8.10;;;5.20;74.70;;;;;;2521436;54;20943;-67
2024/01/29 09:27:51;;;;;;;10.80;7.35;;;5.30;74.80;;;;;;2521668;54;20958;-66
2024/01/29 09:30:18;;;;;;;12.40;7.28;;;5.40;74.80;;;;;;2530410;54;21474;-67
2024/01/29 09:32:44;;;;;;;13.48;8.20;;;5.50;74.90;;;;;;2294042;54;20914;-66
2024/01/29 09:35:11;;;;;;;13.10;7.82;;;5.60;74.90;;;;;;2520714;54;21086;-67
2024/01/29 09:37:39;;;;;;;13.18;7.50;;;5.60;74.90;;;;;;2302757;54;21305;-66
2024/01/29 09:40:15;;;;;;;13.73;8.00;;;5.70;75.00;;;;;;2522103;54;21269;-67
2024/01/29 09:42:42;;;;;;;14.55;8.50;;;5.80;75.00;;;;;;2287941;54;20982;-66
2024/01/29 09:45:11;;;;;;;12.02;7.30;;;5.90;75.10;;;;;;2287194;54;20935;-67
2024/01/29 09:47:39;;;;;;;11.70;6.70;;;5.90;75.10;;;;;;2519328;54;21561;-66
2024/01/29 09:50:11;;;;;;;12.05;7.45;;;6.00;75.20;;;;;;2286874;54;20966;-65
2024/01/29 09:52:38;;;;;;;10.50;6.47;;;6.10;75.30;;;;;;2307105;54;20992;-67
2024/01/29 09:55:07;;;;;;;12.43;7.07;;;6.10;75.30;;;;;;2280700;54;21009;-66
2024/01/29 09:57:35;;;;;;;10.40;7.15;;;6.20;75.30;;;;;;2286768;54;21501;-67
2024/01/29 10:00:01;;;;;;;10.38;7.15;;;6.30;75.40;;;;;;2287053;54;20946;-67
2024/01/29 10:02:27;;;;;;;11.18;7.43;;;6.30;75.40;;;;;;2535569;54;21474;-67
2024/01/29 10:04:54;;;;;;;12.93;7.95;;;6.50;75.60;;;;;;2289963;54;20994;-67
2024/01/29 10:07:21;;;;;;;10.05;6.65;;;6.50;75.60;;;;;;2286552;54;20937;-67
2024/01/29 10:09:51;;;;;;;10.43;6.78;;;6.60;75.80;;;;;;2521045;54;20945;-68
2024/01/29 10:12:23;;;;;;;10.23;7.15;;;6.70;76.00;;;;;;2520950;54;20910;-66
2024/01/29 10:14:55;;;;;;;11.35;7.82;;;6.70;76.00;;;;;;2287331;54;20954;-68
2024/01/29 10:17:23;;;;;;;15.23;9.88;;;6.90;76.30;;;;;;2287104;54;20962;-67
2024/01/29 10:19:50;;;;;;;14.90;10.07;;;6.90;76.50;;;;;;2286743;54;20934;-67
2024/01/29 10:22:17;;;;;;;18.17;11.27;;;7.00;77.10;;;;;;2520928;54;21105;-68
2024/01/29 10:24:44;;;;;;;17.77;12.32;;;7.20;77.60;;;;;;2529100;54;20933;-67
2024/01/29 10:27:10;;;;;;;19.95;13.90;;;7.30;78.10;;;;;;2304829;54;20973;-68
2024/01/29 10:29:47;;;;;;;14.18;9.75;;;7.40;78.60;;;;;;2530765;54;20982;-68
2024/01/29 10:32:15;;;;;;;13.50;8.70;;;7.60;79.00;;;;;;2286923;54;20921;-67
2024/01/29 10:34:41;;;;;;;12.45;7.90;;;7.70;79.10;;;;;;2287278;54;20949;-67
2024/01/29 10:37:08;;;;;;;11.73;7.37;;;7.80;79.30;;;;;;2523004;54;21537;-67
2024/01/29 10:39:36;;;;;;;9.98;6.70;;;8.00;79.60;;;;;;2298897;55;21005;-68
2024/01/29 10:42:04;;;;;;;9.90;6.50;;;8.10;79.80;;;;;;2287160;54;20946;-68
2024/01/29 10:44:32;;;;;;;11.12;6.87;;;8.30;80.00;;;;;;2286915;54;20998;-68
2024/01/29 10:46:59;;;;;;;11.52;7.60;;;8.40;80.20;;;;;;2287219;54;21565;-68
2024/01/29 10:49:26;;;;;;;11.70;7.80;;;8.60;80.50;;;;;;2286203;54;21498;-66
2024/01/29 10:51:53;;;;;;;14.25;8.90;;;8.80;81.20;;;;;;2301105;54;20957;-66
2024/01/29 10:54:20;;;;;;;11.73;8.07;;;9.00;81.80;;;;;;2290979;55;21369;-67
2024/01/29 10:56:47;;;;;;;12.65;9.38;;;9.20;82.40;;;;;;2287214;54;21376;-67
2024/01/29 10:59:13;;;;;;;14.65;10.18;;;9.40;82.80;;;;;;2286618;54;20982;-67
2024/01/29 11:01:40;;;;;;;13.38;9.43;;;9.60;83.10;;;;;;2286729;54;20934;-67
2024/01/29 11:04:07;;;;;;;13.88;8.73;;;9.80;82.90;;;;;;2521850;54;20982;-67
2024/01/29 11:06:56;;;;;;;10.15;7.78;;;10.00;81.50;;;;;;2520840;54;20974;-68
2024/01/29 11:09:24;;;;;;;10.07;7.35;;;10.20;81.00;;;;;;2286558;54;20926;-68
2024/01/29 11:11:51;;;;;;;10.45;7.35;;;10.40;80.90;;;;;;2521802;54;20933;-67
2024/01/29 11:14:21;;;;;;;11.02;8.05;;;10.50;80.70;;;;;;2515574;54;21806;-68
2024/01/29 11:16:51;;;;;;;13.35;8.70;;;10.70;80.90;;;;;;2283280;56;20930;-68
2024/01/29 11:19:20;;;;;;;11.95;7.97;;;10.80;81.00;;;;;;2281805;56;20967;-68
2024/01/29 11:21:50;;;;;;;9.65;6.55;;;11.00;81.10;;;;;;2290680;56;21471;-68
2024/01/29 11:24:16;;;;;;;10.05;6.93;;;11.20;81.00;;;;;;2286755;56;21087;-68
2024/01/29 11:26:44;;;;;;;8.70;6.32;;;11.10;80.70;;;;;;2285246;56;21254;-68
2024/01/29 11:29:10;;;;;;;10.18;7.10;;;11.40;80.50;;;;;;2282521;56;21006;-69
2024/01/29 11:31:42;;;;;;;9.95;6.87;;;11.60;80.50;;;;;;2282693;55;21225;-68
2024/01/29 11:34:08;;;;;;;11.73;7.53;;;11.70;80.40;;;;;;2519948;54;21077;-69
2024/01/29 11:36:37;;;;;;;8.98;6.40;;;11.90;80.70;;;;;;2282642;55;21021;-68
2024/01/29 11:39:08;;;;;;;9.32;6.60;;;12.00;80.70;;;;;;2286744;56;20918;-68
2024/01/29 11:41:35;;;;;;;9.88;7.12;;;12.10;80.50;;;;;;2283033;55;21111;-70
2024/01/29 11:44:02;;;;;;;8.55;5.95;;;12.30;80.60;;;;;;2282618;56;20938;-68
2024/01/29 11:46:28;;;;;;;10.57;6.55;;;12.40;80.50;;;;;;2283075;56;20965;-67
2024/01/29 11:48:58;;;;;;;8.05;5.47;;;12.50;80.30;;;;;;2515794;54;21021;-67
2024/01/29 11:51:26;;;;;;;8.48;5.47;;;12.60;80.10;;;;;;2256101;56;21011;-68
2024/01/29 11:53:52;;;;;;;8.57;5.50;;;12.80;79.80;;;;;;2490039;55;21032;-69
2024/01/29 11:56:19;;;;;;;9.95;5.43;;;12.80;79.50;;;;;;2256940;55;20937;-68
2024/01/29 11:58:57;;;;;;;10.30;6.22;;;12.90;79.40;;;;;;2260285;55;21360;-69
2024/01/29 12:01:26;;;;;;;11.73;6.82;;;13.00;79.10;;;;;;2286626;56;21092;-69
2024/01/29 12:03:55;;;;;;;11.00;6.30;;;13.20;79.10;;;;;;2256167;56;20997;-68
2024/01/29 12:06:22;;;;;;;9.05;5.72;;;13.20;78.80;;;;;;2251379;57;21456;-68
2024/01/29 12:08:57;;;;;;;9.25;6.50;;;13.30;79.00;;;;;;2256309;56;21053;-69
2024/01/29 12:11:24;;;;;;;8.68;5.62;;;13.40;78.70;;;;;;2255974;55;21092;-69
2024/01/29 12:13:55;;;;;;;9.65;6.00;;;13.40;78.50;;;;;;2489758;54;21053;-69
2024/01/29 12:16:22;;;;;;;8.90;5.97;;;13.50;78.40;;;;;;2286513;55;21024;-68
2024/01/29 12:18:49;;;;;;;8.85;5.75;;;13.60;78.40;;;;;;2286736;55;21080;-67
2024/01/29 12:21:16;;;;;;;8.13;5.47;;;13.70;78.30;;;;;;2519796;54;21485;-68
2024/01/29 12:23:44;;;;;;;7.90;5.72;;;13.70;78.10;;;;;;2286817;55;20986;-68
2024/01/29 12:26:12;;;;;;;8.52;5.90;;;13.80;78.20;;;;;;2282243;56;20984;-69
2024/01/29 12:28:39;;;;;;;8.82;5.82;;;13.80;78.30;;;;;;2285957;55;20970;-69
2024/01/29 12:31:06;;;;;;;6.85;4.85;;;13.90;78.40;;;;;;2517053;54;21029;-68
2024/01/29 12:33:33;;;;;;;9.52;5.07;;;14.00;78.30;;;;;;2286618;55;20974;-68
2024/01/29 12:36:16;;;;;;;7.72;4.43;;;14.00;78.10;;;;;;2286722;55;21490;-67
2024/01/29 12:38:53;;;;;;;7.90;4.60;;;14.10;77.20;;;;;;2519699;54;21001;-68
2024/01/29 12:41:24;;;;;;;6.53;4.60;;;14.10;77.40;;;;;;2519696;54;21230;-68
2024/01/29 12:43:55;;;;;;;6.25;4.70;;;14.20;78.10;;;;;;2510083;55;21041;-69
2024/01/29 12:46:30;;;;;;;7.30;4.75;;;14.30;78.10;;;;;;2517814;54;21130;-69
2024/01/29 12:49:01;;;;;;;6.82;4.93;;;14.30;78.10;;;;;;2514016;54;20921;-69
2024/01/29 12:51:27;;;;;;;8.68;5.07;;;14.40;78.20;;;;;;2521302;54;20977;-70